Sassamansville, PA (19472)

6:42 AM EDT on October 01, 2014 (GMT -0400)
Gilbertsville | Change Station
CLOSE
Current Station
Personal Weather Station
Location: Gilbertsville, PA
Elevation: 338 ft
Nearby Weather Stations

Elev 338 ft 40.30 °N, 75.62 °W | Updated 1 minute ago

Mostly Cloudy
Mostly Cloudy
59.6 °F
Feels Like 59.6 °F
N
0.0
Wind Variable Wind from North
Gusts 0.0 mph

Today
High -- | Low -- °F
--% Chance of Precip.
Yesterday
High -- | Low -- °F
Precip. -- in
6:58 AM 6:44 PM
Waxing Crescent, 46% visible
Pressure 29.98 in
Visibility 10.0 miles
Clouds Mostly Cloudy 2600 ft
Overcast 11000 ft
Dew Point 58 °F
Humidity 93%
Rainfall 0.00 in
Snow Depth Not available.
UV 0.0 out of 12
Pollen 1.90 out of 12
Air Quality Not available.
Flu Activity Not available.
METAR KPTW 010854Z AUTO 05005KT 10SM BKN026 OVC110 16/14 A2999 RMK AO2 SLP152 T01560144 58005

More Conditions Fewer Conditions

Pressure 29.98 in
Visibility 10.0 miles
Clouds Mostly Cloudy 2600 ft
Overcast 11000 ft
Dew Point 58 °F
Humidity 93%
Rainfall 0.00 in
Snow Depth Not available.
UV 0.0 out of 12
Pollen 1.90 out of 12
Air Quality Not available.
Flu Activity Not available.
METAR KPTW 010854Z AUTO 05005KT 10SM BKN026 OVC110 16/14 A2999 RMK AO2 SLP152 T01560144 58005

More Conditions Fewer Conditions

10-Day Weather Forecast

Almanac

Astronomy

Oct. 01, 2014 Rise Set
Actual Time 6:58 AM EDT 6:44 PM EDT
Civil Twilight 6:31 AM EDT 7:11 PM EDT
Nautical Twilight 5:59 AM EDT 7:43 PM EDT
Astronomical Twilight 5:28 AM EDT 8:14 PM EDT
Moon 1:58 PM EDT No Moon Set
Length of Visible Light 12h 40m
Length of Day
11h 45m
Tomorrow will be 2m 38s shorter.
Waxing Crescent, 46% of the Moon is Illuminated
Today
Waxing Crescent
Oct 1
First Quarter
Oct 8
Full
Oct 15
Last Quarter
Oct 23
New

Today's Extremes

State Highs State Lows

Community

WunderPhotos

Upload Photos

1,757,910 photos uploaded!

WunderBlogs® & News

Nearby

Snow Depth

Station Depth Elevation
No new snow has been reported.

Earthquake Activity

City Distance Mag. Time & Date
No recent earthquake activity has been reported nearby.
Minimum magnitude displayed is 2.5.

Coastal Water Temperatures

Place Temperature
No Stations Reporting

Nearby Weather Stations